sensor_id;sensor_type;location;lat;lon;timestamp;P1;durP1;ratioP1;P2;durP2;ratioP2
28431;SDS011;15664;51.302;7.744;2022-08-03T00:01:04;6.70;;;3.27;;
28431;SDS011;15664;51.302;7.744;2022-08-03T00:03:30;7.47;;;3.27;;
28431;SDS011;15664;51.302;7.744;2022-08-03T00:05:55;8.13;;;3.63;;
28431;SDS011;15664;51.302;7.744;2022-08-03T00:08:20;6.70;;;3.40;;
28431;SDS011;15664;51.302;7.744;2022-08-03T00:10:45;6.77;;;3.10;;
28431;SDS011;15664;51.302;7.744;2022-08-03T00:13:11;6.67;;;3.30;;
28431;SDS011;15664;51.302;7.744;2022-08-03T00:15:38;9.38;;;3.45;;
28431;SDS011;15664;51.302;7.744;2022-08-03T00:18:03;6.82;;;3.25;;
28431;SDS011;15664;51.302;7.744;2022-08-03T00:20:29;6.60;;;3.20;;
28431;SDS011;15664;51.302;7.744;2022-08-03T00:22:54;7.50;;;3.30;;
28431;SDS011;15664;51.302;7.744;2022-08-03T00:25:19;6.13;;;3.33;;
28431;SDS011;15664;51.302;7.744;2022-08-03T00:27:44;6.13;;;3.27;;
28431;SDS011;15664;51.302;7.744;2022-08-03T00:30:09;7.17;;;3.40;;
28431;SDS011;15664;51.302;7.744;2022-08-03T00:32:35;6.97;;;3.30;;
28431;SDS011;15664;51.302;7.744;2022-08-03T00:35:00;7.07;;;3.57;;
28431;SDS011;15664;51.302;7.744;2022-08-03T00:37:25;8.17;;;3.43;;
28431;SDS011;15664;51.302;7.744;2022-08-03T00:39:51;7.03;;;3.10;;
28431;SDS011;15664;51.302;7.744;2022-08-03T00:42:16;7.57;;;3.10;;
28431;SDS011;15664;51.302;7.744;2022-08-03T00:44:42;6.10;;;2.70;;
28431;SDS011;15664;51.302;7.744;2022-08-03T00:47:07;6.53;;;3.53;;
28431;SDS011;15664;51.302;7.744;2022-08-03T00:49:34;7.47;;;3.45;;
28431;SDS011;15664;51.302;7.744;2022-08-03T00:51:59;6.43;;;3.30;;
28431;SDS011;15664;51.302;7.744;2022-08-03T00:54:25;7.63;;;3.58;;
28431;SDS011;15664;51.302;7.744;2022-08-03T00:56:51;6.70;;;3.40;;
28431;SDS011;15664;51.302;7.744;2022-08-03T00:59:17;7.63;;;3.37;;
28431;SDS011;15664;51.302;7.744;2022-08-03T01:01:42;7.68;;;3.20;;
28431;SDS011;15664;51.302;7.744;2022-08-03T01:04:07;7.07;;;3.10;;
28431;SDS011;15664;51.302;7.744;2022-08-03T01:06:34;7.83;;;3.40;;
28431;SDS011;15664;51.302;7.744;2022-08-03T01:09:08;7.13;;;3.35;;
28431;SDS011;15664;51.302;7.744;2022-08-03T01:11:41;5.95;;;3.25;;
28431;SDS011;15664;51.302;7.744;2022-08-03T01:14:14;6.40;;;3.30;;
28431;SDS011;15664;51.302;7.744;2022-08-03T01:16:58;8.55;;;3.50;;
28431;SDS011;15664;51.302;7.744;2022-08-03T01:21:58;9.98;;;3.30;;
28431;SDS011;15664;51.302;7.744;2022-08-03T01:27:06;6.03;;;2.93;;
28431;SDS011;15664;51.302;7.744;2022-08-03T01:29:38;7.10;;;3.22;;
28431;SDS011;15664;51.302;7.744;2022-08-03T01:32:07;6.25;;;3.20;;
28431;SDS011;15664;51.302;7.744;2022-08-03T01:34:35;8.82;;;3.30;;
28431;SDS011;15664;51.302;7.744;2022-08-03T01:37:04;5.55;;;2.90;;
28431;SDS011;15664;51.302;7.744;2022-08-03T01:39:31;6.77;;;3.30;;
28431;SDS011;15664;51.302;7.744;2022-08-03T01:41:58;5.93;;;2.70;;
28431;SDS011;15664;51.302;7.744;2022-08-03T01:44:25;9.40;;;2.88;;
28431;SDS011;15664;51.302;7.744;2022-08-03T01:46:51;5.90;;;2.70;;
28431;SDS011;15664;51.302;7.744;2022-08-03T01:49:17;6.97;;;2.90;;
28431;SDS011;15664;51.302;7.744;2022-08-03T01:51:42;4.90;;;2.70;;
28431;SDS011;15664;51.302;7.744;2022-08-03T01:54:09;7.13;;;3.08;;
28431;SDS011;15664;51.302;7.744;2022-08-03T01:56:35;5.85;;;2.72;;
28431;SDS011;15664;51.302;7.744;2022-08-03T01:59:02;5.75;;;3.00;;
28431;SDS011;15664;51.302;7.744;2022-08-03T02:01:27;7.27;;;3.53;;
28431;SDS011;15664;51.302;7.744;2022-08-03T02:03:53;6.40;;;2.80;;
28431;SDS011;15664;51.302;7.744;2022-08-03T02:06:20;6.72;;;2.88;;
28431;SDS011;15664;51.302;7.744;2022-08-03T02:08:45;7.93;;;3.07;;
28431;SDS011;15664;51.302;7.744;2022-08-03T02:11:12;7.13;;;3.05;;
28431;SDS011;15664;51.302;7.744;2022-08-03T02:13:37;6.03;;;2.70;;
28431;SDS011;15664;51.302;7.744;2022-08-03T02:16:03;6.38;;;2.83;;
28431;SDS011;15664;51.302;7.744;2022-08-03T02:18:29;6.03;;;2.50;;
28431;SDS011;15664;51.302;7.744;2022-08-03T02:20:54;6.32;;;2.83;;
28431;SDS011;15664;51.302;7.744;2022-08-03T02:23:20;6.83;;;3.20;;
28431;SDS011;15664;51.302;7.744;2022-08-03T02:25:47;6.63;;;2.90;;
28431;SDS011;15664;51.302;7.744;2022-08-03T02:28:19;6.35;;;2.47;;
28431;SDS011;15664;51.302;7.744;2022-08-03T02:30:45;6.73;;;3.03;;
28431;SDS011;15664;51.302;7.744;2022-08-03T02:33:17;6.22;;;3.22;;
28431;SDS011;15664;51.302;7.744;2022-08-03T02:35:43;6.85;;;3.20;;
28431;SDS011;15664;51.302;7.744;2022-08-03T02:38:09;6.90;;;3.10;;
28431;SDS011;15664;51.302;7.744;2022-08-03T02:40:35;6.28;;;3.10;;
28431;SDS011;15664;51.302;7.744;2022-08-03T02:43:08;7.73;;;3.13;;
28431;SDS011;15664;51.302;7.744;2022-08-03T02:45:34;11.23;;;3.60;;
28431;SDS011;15664;51.302;7.744;2022-08-03T02:48:01;6.72;;;3.50;;
28431;SDS011;15664;51.302;7.744;2022-08-03T02:50:28;7.80;;;3.05;;
28431;SDS011;15664;51.302;7.744;2022-08-03T02:52:54;7.45;;;3.42;;
28431;SDS011;15664;51.302;7.744;2022-08-03T02:55:20;7.57;;;3.50;;
28431;SDS011;15664;51.302;7.744;2022-08-03T02:57:46;8.00;;;3.10;;
28431;SDS011;15664;51.302;7.744;2022-08-03T03:00:12;6.00;;;2.87;;
28431;SDS011;15664;51.302;7.744;2022-08-03T03:02:38;7.63;;;3.40;;
28431;SDS011;15664;51.302;7.744;2022-08-03T03:05:03;7.63;;;3.60;;
28431;SDS011;15664;51.302;7.744;2022-08-03T03:07:29;7.50;;;3.42;;
28431;SDS011;15664;51.302;7.744;2022-08-03T03:09:55;6.07;;;3.00;;
28431;SDS011;15664;51.302;7.744;2022-08-03T03:12:20;7.88;;;3.50;;
28431;SDS011;15664;51.302;7.744;2022-08-03T03:14:46;8.27;;;3.93;;
28431;SDS011;15664;51.302;7.744;2022-08-03T03:17:11;8.33;;;3.37;;
28431;SDS011;15664;51.302;7.744;2022-08-03T03:19:38;6.60;;;3.50;;
28431;SDS011;15664;51.302;7.744;2022-08-03T03:22:04;5.83;;;3.10;;
28431;SDS011;15664;51.302;7.744;2022-08-03T03:24:31;7.00;;;3.45;;
28431;SDS011;15664;51.302;7.744;2022-08-03T03:26:57;10.02;;;3.90;;
28431;SDS011;15664;51.302;7.744;2022-08-03T03:29:22;7.90;;;3.50;;
28431;SDS011;15664;51.302;7.744;2022-08-03T03:31:48;8.97;;;3.37;;
28431;SDS011;15664;51.302;7.744;2022-08-03T03:34:13;7.60;;;3.43;;
28431;SDS011;15664;51.302;7.744;2022-08-03T03:36:39;8.20;;;3.65;;
28431;SDS011;15664;51.302;7.744;2022-08-03T03:39:04;9.87;;;4.13;;
28431;SDS011;15664;51.302;7.744;2022-08-03T03:41:29;7.30;;;3.43;;
28431;SDS011;15664;51.302;7.744;2022-08-03T03:43:55;7.03;;;3.77;;
28431;SDS011;15664;51.302;7.744;2022-08-03T03:46:20;7.87;;;3.60;;
28431;SDS011;15664;51.302;7.744;2022-08-03T03:48:45;6.85;;;3.10;;
28431;SDS011;15664;51.302;7.744;2022-08-03T03:51:11;11.77;;;3.50;;
28431;SDS011;15664;51.302;7.744;2022-08-03T03:53:36;5.82;;;3.00;;
28431;SDS011;15664;51.302;7.744;2022-08-03T03:56:01;7.73;;;3.23;;
28431;SDS011;15664;51.302;7.744;2022-08-03T03:58:27;7.53;;;3.10;;
28431;SDS011;15664;51.302;7.744;2022-08-03T04:00:52;7.57;;;3.70;;
28431;SDS011;15664;51.302;7.744;2022-08-03T04:03:18;6.87;;;3.20;;
28431;SDS011;15664;51.302;7.744;2022-08-03T04:05:43;7.03;;;3.40;;
28431;SDS011;15664;51.302;7.744;2022-08-03T04:08:27;7.78;;;3.40;;
28431;SDS011;15664;51.302;7.744;2022-08-03T04:11:17;7.55;;;3.20;;
28431;SDS011;15664;51.302;7.744;2022-08-03T04:16:15;8.13;;;3.22;;
28431;SDS011;15664;51.302;7.744;2022-08-03T04:18:40;6.17;;;2.90;;
28431;SDS011;15664;51.302;7.744;2022-08-03T04:21:09;7.75;;;3.10;;
28431;SDS011;15664;51.302;7.744;2022-08-03T04:23:36;6.30;;;3.08;;
28431;SDS011;15664;51.302;7.744;2022-08-03T04:26:01;7.45;;;3.08;;
28431;SDS011;15664;51.302;7.744;2022-08-03T04:28:27;7.27;;;3.23;;
28431;SDS011;15664;51.302;7.744;2022-08-03T04:30:54;7.18;;;3.55;;
28431;SDS011;15664;51.302;7.744;2022-08-03T04:33:20;9.23;;;3.33;;
28431;SDS011;15664;51.302;7.744;2022-08-03T04:35:47;9.75;;;3.15;;
28431;SDS011;15664;51.302;7.744;2022-08-03T04:38:13;6.57;;;3.23;;
28431;SDS011;15664;51.302;7.744;2022-08-03T04:40:40;7.78;;;3.38;;
28431;SDS011;15664;51.302;7.744;2022-08-03T04:43:07;9.10;;;3.50;;
28431;SDS011;15664;51.302;7.744;2022-08-03T04:45:32;6.57;;;3.15;;
28431;SDS011;15664;51.302;7.744;2022-08-03T04:47:58;6.20;;;3.10;;
28431;SDS011;15664;51.302;7.744;2022-08-03T04:50:23;6.20;;;3.33;;
28431;SDS011;15664;51.302;7.744;2022-08-03T04:53:05;7.93;;;3.60;;
28431;SDS011;15664;51.302;7.744;2022-08-03T04:55:31;8.40;;;3.30;;
28431;SDS011;15664;51.302;7.744;2022-08-03T04:57:57;6.65;;;3.47;;
28431;SDS011;15664;51.302;7.744;2022-08-03T05:00:22;7.35;;;3.50;;
28431;SDS011;15664;51.302;7.744;2022-08-03T05:02:48;7.10;;;3.00;;
28431;SDS011;15664;51.302;7.744;2022-08-03T05:05:13;6.43;;;3.30;;
28431;SDS011;15664;51.302;7.744;2022-08-03T05:07:40;8.38;;;3.08;;
28431;SDS011;15664;51.302;7.744;2022-08-03T05:10:05;7.77;;;3.03;;
28431;SDS011;15664;51.302;7.744;2022-08-03T05:12:31;7.45;;;2.65;;
28431;SDS011;15664;51.302;7.744;2022-08-03T05:14:56;9.00;;;2.90;;
28431;SDS011;15664;51.302;7.744;2022-08-03T05:17:21;7.50;;;2.90;;
28431;SDS011;15664;51.302;7.744;2022-08-03T05:19:47;7.90;;;3.20;;
28431;SDS011;15664;51.302;7.744;2022-08-03T05:22:12;7.47;;;3.50;;
28431;SDS011;15664;51.302;7.744;2022-08-03T05:24:37;6.97;;;3.70;;
28431;SDS011;15664;51.302;7.744;2022-08-03T05:27:02;5.87;;;3.30;;
28431;SDS011;15664;51.302;7.744;2022-08-03T05:29:28;7.37;;;3.10;;
28431;SDS011;15664;51.302;7.744;2022-08-03T05:31:53;6.80;;;3.03;;
28431;SDS011;15664;51.302;7.744;2022-08-03T05:34:18;11.80;;;3.27;;
28431;SDS011;15664;51.302;7.744;2022-08-03T05:36:43;7.37;;;2.97;;
28431;SDS011;15664;51.302;7.744;2022-08-03T05:39:08;9.60;;;2.90;;
28431;SDS011;15664;51.302;7.744;2022-08-03T05:41:34;5.87;;;2.57;;
28431;SDS011;15664;51.302;7.744;2022-08-03T05:44:02;7.77;;;2.70;;
28431;SDS011;15664;51.302;7.744;2022-08-03T05:46:30;4.90;;;2.50;;
28431;SDS011;15664;51.302;7.744;2022-08-03T05:48:55;5.90;;;2.40;;
28431;SDS011;15664;51.302;7.744;2022-08-03T05:51:20;4.97;;;2.20;;
28431;SDS011;15664;51.302;7.744;2022-08-03T05:53:45;7.93;;;2.90;;
28431;SDS011;15664;51.302;7.744;2022-08-03T05:56:11;6.33;;;2.73;;
28431;SDS011;15664;51.302;7.744;2022-08-03T05:58:36;7.67;;;2.90;;
28431;SDS011;15664;51.302;7.744;2022-08-03T06:01:01;5.78;;;2.90;;
28431;SDS011;15664;51.302;7.744;2022-08-03T06:03:27;5.53;;;2.42;;
28431;SDS011;15664;51.302;7.744;2022-08-03T06:05:52;5.97;;;2.40;;
28431;SDS011;15664;51.302;7.744;2022-08-03T06:08:18;5.82;;;2.40;;
28431;SDS011;15664;51.302;7.744;2022-08-03T06:10:43;6.13;;;2.23;;
28431;SDS011;15664;51.302;7.744;2022-08-03T06:13:08;7.43;;;3.07;;
28431;SDS011;15664;51.302;7.744;2022-08-03T06:15:34;6.00;;;2.67;;
28431;SDS011;15664;51.302;7.744;2022-08-03T06:17:59;7.03;;;2.90;;
28431;SDS011;15664;51.302;7.744;2022-08-03T06:20:24;7.37;;;2.70;;
28431;SDS011;15664;51.302;7.744;2022-08-03T06:22:49;7.43;;;2.50;;
28431;SDS011;15664;51.302;7.744;2022-08-03T06:25:15;6.93;;;2.50;;
28431;SDS011;15664;51.302;7.744;2022-08-03T06:27:40;8.55;;;2.70;;
28431;SDS011;15664;51.302;7.744;2022-08-03T06:30:06;8.17;;;2.67;;
28431;SDS011;15664;51.302;7.744;2022-08-03T06:32:38;8.20;;;2.70;;
28431;SDS011;15664;51.302;7.744;2022-08-03T06:35:04;7.88;;;2.85;;
28431;SDS011;15664;51.302;7.744;2022-08-03T06:37:30;9.03;;;2.70;;
28431;SDS011;15664;51.302;7.744;2022-08-03T06:39:55;8.33;;;2.67;;
28431;SDS011;15664;51.302;7.744;2022-08-03T06:42:20;7.68;;;3.00;;
28431;SDS011;15664;51.302;7.744;2022-08-03T06:44:45;6.70;;;2.80;;
28431;SDS011;15664;51.302;7.744;2022-08-03T06:47:11;5.63;;;3.10;;
28431;SDS011;15664;51.302;7.744;2022-08-03T06:49:36;5.40;;;2.43;;
28431;SDS011;15664;51.302;7.744;2022-08-03T06:52:01;5.38;;;2.83;;
28431;SDS011;15664;51.302;7.744;2022-08-03T06:54:26;7.23;;;2.90;;
28431;SDS011;15664;51.302;7.744;2022-08-03T06:56:52;10.13;;;2.93;;
28431;SDS011;15664;51.302;7.744;2022-08-03T06:59:17;7.47;;;2.90;;
28431;SDS011;15664;51.302;7.744;2022-08-03T07:01:43;5.23;;;2.87;;
28431;SDS011;15664;51.302;7.744;2022-08-03T07:04:08;4.97;;;2.70;;
28431;SDS011;15664;51.302;7.744;2022-08-03T07:06:33;6.57;;;2.77;;
28431;SDS011;15664;51.302;7.744;2022-08-03T07:08:58;6.73;;;2.73;;
28431;SDS011;15664;51.302;7.744;2022-08-03T07:11:24;7.23;;;2.83;;
28431;SDS011;15664;51.302;7.744;2022-08-03T07:13:49;6.05;;;3.30;;
28431;SDS011;15664;51.302;7.744;2022-08-03T07:16:14;7.70;;;2.87;;
28431;SDS011;15664;51.302;7.744;2022-08-03T07:18:39;6.37;;;2.90;;
28431;SDS011;15664;51.302;7.744;2022-08-03T07:21:05;7.07;;;2.60;;
28431;SDS011;15664;51.302;7.744;2022-08-03T07:23:32;8.18;;;3.00;;
28431;SDS011;15664;51.302;7.744;2022-08-03T07:25:57;5.60;;;2.80;;
28431;SDS011;15664;51.302;7.744;2022-08-03T07:28:22;4.70;;;2.60;;
28431;SDS011;15664;51.302;7.744;2022-08-03T07:30:47;6.03;;;2.43;;
28431;SDS011;15664;51.302;7.744;2022-08-03T07:33:13;5.80;;;2.57;;
28431;SDS011;15664;51.302;7.744;2022-08-03T07:35:39;6.40;;;2.83;;
28431;SDS011;15664;51.302;7.744;2022-08-03T07:38:04;6.78;;;2.40;;
28431;SDS011;15664;51.302;7.744;2022-08-03T07:40:29;7.57;;;2.90;;
28431;SDS011;15664;51.302;7.744;2022-08-03T07:42:54;5.97;;;2.73;;
28431;SDS011;15664;51.302;7.744;2022-08-03T07:45:19;6.63;;;3.10;;
28431;SDS011;15664;51.302;7.744;2022-08-03T07:47:47;6.00;;;2.87;;
28431;SDS011;15664;51.302;7.744;2022-08-03T07:50:12;6.80;;;3.03;;
28431;SDS011;15664;51.302;7.744;2022-08-03T07:52:37;6.28;;;2.80;;
28431;SDS011;15664;51.302;7.744;2022-08-03T07:55:12;5.32;;;2.63;;
28431;SDS011;15664;51.302;7.744;2022-08-03T07:57:37;5.13;;;2.53;;
28431;SDS011;15664;51.302;7.744;2022-08-03T08:00:03;6.23;;;2.77;;
28431;SDS011;15664;51.302;7.744;2022-08-03T08:02:37;6.55;;;2.58;;
28431;SDS011;15664;51.302;7.744;2022-08-03T08:05:02;5.53;;;2.50;;
28431;SDS011;15664;51.302;7.744;2022-08-03T08:07:27;6.87;;;2.47;;
28431;SDS011;15664;51.302;7.744;2022-08-03T08:09:52;5.93;;;3.10;;
28431;SDS011;15664;51.302;7.744;2022-08-03T08:12:18;5.43;;;2.90;;
28431;SDS011;15664;51.302;7.744;2022-08-03T08:14:43;5.27;;;2.97;;
28431;SDS011;15664;51.302;7.744;2022-08-03T08:17:10;7.15;;;3.20;;
28431;SDS011;15664;51.302;7.744;2022-08-03T08:19:36;5.20;;;2.70;;
28431;SDS011;15664;51.302;7.744;2022-08-03T08:22:01;4.97;;;2.67;;
28431;SDS011;15664;51.302;7.744;2022-08-03T08:24:26;4.87;;;2.63;;
28431;SDS011;15664;51.302;7.744;2022-08-03T08:26:54;5.63;;;2.53;;
28431;SDS011;15664;51.302;7.744;2022-08-03T08:29:19;5.87;;;2.50;;
28431;SDS011;15664;51.302;7.744;2022-08-03T08:31:47;5.43;;;2.70;;
28431;SDS011;15664;51.302;7.744;2022-08-03T08:34:12;5.43;;;2.80;;
28431;SDS011;15664;51.302;7.744;2022-08-03T08:36:37;5.00;;;2.60;;
28431;SDS011;15664;51.302;7.744;2022-08-03T08:39:02;4.93;;;2.53;;
28431;SDS011;15664;51.302;7.744;2022-08-03T08:41:28;7.60;;;2.73;;
28431;SDS011;15664;51.302;7.744;2022-08-03T08:43:53;5.63;;;2.27;;
28431;SDS011;15664;51.302;7.744;2022-08-03T08:46:19;4.32;;;2.15;;
28431;SDS011;15664;51.302;7.744;2022-08-03T08:48:44;5.80;;;2.10;;
28431;SDS011;15664;51.302;7.744;2022-08-03T08:51:10;6.00;;;2.20;;
28431;SDS011;15664;51.302;7.744;2022-08-03T08:53:36;6.60;;;2.30;;
28431;SDS011;15664;51.302;7.744;2022-08-03T08:56:02;3.78;;;1.83;;
28431;SDS011;15664;51.302;7.744;2022-08-03T08:58:29;4.53;;;2.03;;
28431;SDS011;15664;51.302;7.744;2022-08-03T09:00:54;4.80;;;2.00;;
28431;SDS011;15664;51.302;7.744;2022-08-03T09:03:19;3.57;;;1.97;;
28431;SDS011;15664;51.302;7.744;2022-08-03T09:05:45;4.03;;;1.63;;
28431;SDS011;15664;51.302;7.744;2022-08-03T09:08:10;5.40;;;1.80;;
28431;SDS011;15664;51.302;7.744;2022-08-03T09:10:35;5.23;;;2.10;;
28431;SDS011;15664;51.302;7.744;2022-08-03T09:13:00;4.80;;;1.80;;
28431;SDS011;15664;51.302;7.744;2022-08-03T09:15:27;5.03;;;2.00;;
28431;SDS011;15664;51.302;7.744;2022-08-03T09:17:53;4.43;;;2.05;;
28431;SDS011;15664;51.302;7.744;2022-08-03T09:20:19;4.18;;;2.13;;
28431;SDS011;15664;51.302;7.744;2022-08-03T09:22:51;4.40;;;2.13;;
28431;SDS011;15664;51.302;7.744;2022-08-03T09:25:19;5.75;;;1.95;;
28431;SDS011;15664;51.302;7.744;2022-08-03T09:27:44;5.55;;;2.15;;
28431;SDS011;15664;51.302;7.744;2022-08-03T09:30:11;4.87;;;1.90;;
28431;SDS011;15664;51.302;7.744;2022-08-03T09:32:36;4.45;;;1.83;;
28431;SDS011;15664;51.302;7.744;2022-08-03T09:35:02;5.00;;;2.30;;
28431;SDS011;15664;51.302;7.744;2022-08-03T09:37:28;3.97;;;1.95;;
28431;SDS011;15664;51.302;7.744;2022-08-03T09:39:53;5.63;;;2.10;;
28431;SDS011;15664;51.302;7.744;2022-08-03T09:42:18;4.13;;;2.20;;
28431;SDS011;15664;51.302;7.744;2022-08-03T09:44:47;6.20;;;2.40;;
28431;SDS011;15664;51.302;7.744;2022-08-03T09:47:13;4.72;;;2.17;;
28431;SDS011;15664;51.302;7.744;2022-08-03T09:49:39;5.38;;;1.90;;
28431;SDS011;15664;51.302;7.744;2022-08-03T09:52:12;3.97;;;1.83;;
28431;SDS011;15664;51.302;7.744;2022-08-03T09:54:38;4.50;;;2.03;;
28431;SDS011;15664;51.302;7.744;2022-08-03T09:57:04;4.63;;;1.70;;
28431;SDS011;15664;51.302;7.744;2022-08-03T09:59:31;4.97;;;2.03;;
28431;SDS011;15664;51.302;7.744;2022-08-03T10:01:56;5.53;;;2.28;;
28431;SDS011;15664;51.302;7.744;2022-08-03T10:04:22;3.83;;;1.73;;
28431;SDS011;15664;51.302;7.744;2022-08-03T10:09:28;5.07;;;2.03;;
28431;SDS011;15664;51.302;7.744;2022-08-03T10:11:53;4.77;;;2.10;;
28431;SDS011;15664;51.302;7.744;2022-08-03T10:14:18;3.53;;;2.00;;
28431;SDS011;15664;51.302;7.744;2022-08-03T10:16:44;4.77;;;1.90;;
28431;SDS011;15664;51.302;7.744;2022-08-03T10:19:10;5.25;;;2.00;;
28431;SDS011;15664;51.302;7.744;2022-08-03T10:21:37;5.73;;;1.90;;
28431;SDS011;15664;51.302;7.744;2022-08-03T10:24:03;4.35;;;2.10;;
28431;SDS011;15664;51.302;7.744;2022-08-03T10:26:30;4.72;;;2.20;;
28431;SDS011;15664;51.302;7.744;2022-08-03T10:28:55;4.57;;;2.20;;
28431;SDS011;15664;51.302;7.744;2022-08-03T10:31:23;4.80;;;2.15;;
28431;SDS011;15664;51.302;7.744;2022-08-03T10:33:49;5.80;;;2.10;;
28431;SDS011;15664;51.302;7.744;2022-08-03T10:36:15;4.22;;;1.95;;
28431;SDS011;15664;51.302;7.744;2022-08-03T10:38:46;4.47;;;2.10;;
28431;SDS011;15664;51.302;7.744;2022-08-03T10:41:16;5.10;;;1.80;;
28431;SDS011;15664;51.302;7.744;2022-08-03T10:43:47;5.00;;;2.10;;
28431;SDS011;15664;51.302;7.744;2022-08-03T10:46:14;6.22;;;1.90;;
28431;SDS011;15664;51.302;7.744;2022-08-03T10:48:41;5.25;;;2.00;;
28431;SDS011;15664;51.302;7.744;2022-08-03T10:51:07;5.57;;;1.70;;
28431;SDS011;15664;51.302;7.744;2022-08-03T10:53:33;5.20;;;2.40;;
28431;SDS011;15664;51.302;7.744;2022-08-03T10:55:58;5.85;;;2.33;;
28431;SDS011;15664;51.302;7.744;2022-08-03T10:58:46;6.80;;;2.70;;
28431;SDS011;15664;51.302;7.744;2022-08-03T11:01:11;5.40;;;2.00;;
28431;SDS011;15664;51.302;7.744;2022-08-03T11:06:15;5.00;;;2.00;;
28431;SDS011;15664;51.302;7.744;2022-08-03T11:08:47;6.55;;;1.80;;
28431;SDS011;15664;51.302;7.744;2022-08-03T11:13:43;6.10;;;1.70;;
28431;SDS011;15664;51.302;7.744;2022-08-03T11:16:20;4.75;;;1.85;;
28431;SDS011;15664;51.302;7.744;2022-08-03T11:19:04;4.17;;;1.67;;
28431;SDS011;15664;51.302;7.744;2022-08-03T11:43:03;4.70;;;1.85;;
28431;SDS011;15664;51.302;7.744;2022-08-03T11:45:29;3.63;;;1.60;;
28431;SDS011;15664;51.302;7.744;2022-08-03T11:47:55;3.85;;;1.60;;
28431;SDS011;15664;51.302;7.744;2022-08-03T11:50:22;3.70;;;1.70;;
28431;SDS011;15664;51.302;7.744;2022-08-03T11:52:48;4.63;;;1.67;;
28431;SDS011;15664;51.302;7.744;2022-08-03T11:55:14;3.73;;;1.60;;
28431;SDS011;15664;51.302;7.744;2022-08-03T11:57:40;4.43;;;1.73;;
28431;SDS011;15664;51.302;7.744;2022-08-03T12:00:19;4.57;;;1.63;;
28431;SDS011;15664;51.302;7.744;2022-08-03T12:02:54;3.58;;;1.60;;
28431;SDS011;15664;51.302;7.744;2022-08-03T12:05:19;4.35;;;1.77;;
28431;SDS011;15664;51.302;7.744;2022-08-03T12:07:45;5.23;;;1.70;;
28431;SDS011;15664;51.302;7.744;2022-08-03T12:10:13;3.83;;;1.67;;
28431;SDS011;15664;51.302;7.744;2022-08-03T12:12:39;5.78;;;2.05;;
28431;SDS011;15664;51.302;7.744;2022-08-03T12:15:05;3.50;;;1.50;;
28431;SDS011;15664;51.302;7.744;2022-08-03T12:19:59;5.63;;;1.73;;
28431;SDS011;15664;51.302;7.744;2022-08-03T12:22:33;5.03;;;1.53;;
28431;SDS011;15664;51.302;7.744;2022-08-03T12:24:59;4.35;;;1.80;;
28431;SDS011;15664;51.302;7.744;2022-08-03T12:27:25;4.20;;;1.93;;
28431;SDS011;15664;51.302;7.744;2022-08-03T12:29:53;4.32;;;1.80;;
28431;SDS011;15664;51.302;7.744;2022-08-03T12:32:19;3.85;;;1.40;;
28431;SDS011;15664;51.302;7.744;2022-08-03T12:34:45;4.87;;;1.40;;
28431;SDS011;15664;51.302;7.744;2022-08-03T12:37:10;3.77;;;1.50;;
28431;SDS011;15664;51.302;7.744;2022-08-03T12:39:35;5.33;;;1.70;;
28431;SDS011;15664;51.302;7.744;2022-08-03T12:42:00;6.37;;;1.67;;
28431;SDS011;15664;51.302;7.744;2022-08-03T12:44:32;4.00;;;1.60;;
28431;SDS011;15664;51.302;7.744;2022-08-03T12:46:58;4.53;;;2.00;;
28431;SDS011;15664;51.302;7.744;2022-08-03T12:49:24;4.60;;;2.00;;
28431;SDS011;15664;51.302;7.744;2022-08-03T12:54:18;5.07;;;2.03;;
28431;SDS011;15664;51.302;7.744;2022-08-03T12:57:00;5.13;;;1.80;;
28431;SDS011;15664;51.302;7.744;2022-08-03T12:59:30;4.40;;;1.90;;
28431;SDS011;15664;51.302;7.744;2022-08-03T13:01:55;5.40;;;2.00;;
28431;SDS011;15664;51.302;7.744;2022-08-03T13:04:27;4.97;;;1.90;;
28431;SDS011;15664;51.302;7.744;2022-08-03T13:07:00;5.32;;;1.90;;
28431;SDS011;15664;51.302;7.744;2022-08-03T13:09:25;4.53;;;2.03;;
28431;SDS011;15664;51.302;7.744;2022-08-03T13:14:40;4.88;;;1.92;;
28431;SDS011;15664;51.302;7.744;2022-08-03T13:17:07;4.25;;;1.83;;
28431;SDS011;15664;51.302;7.744;2022-08-03T13:19:33;3.67;;;1.77;;
28431;SDS011;15664;51.302;7.744;2022-08-03T13:21:58;5.77;;;2.10;;
28431;SDS011;15664;51.302;7.744;2022-08-03T13:24:23;5.07;;;1.60;;
28431;SDS011;15664;51.302;7.744;2022-08-03T13:26:48;5.70;;;1.90;;
28431;SDS011;15664;51.302;7.744;2022-08-03T13:29:15;3.88;;;1.83;;
28431;SDS011;15664;51.302;7.744;2022-08-03T13:31:40;6.32;;;1.80;;
28431;SDS011;15664;51.302;7.744;2022-08-03T13:34:06;5.88;;;2.30;;
28431;SDS011;15664;51.302;7.744;2022-08-03T13:36:31;4.90;;;2.00;;
28431;SDS011;15664;51.302;7.744;2022-08-03T13:38:56;4.90;;;1.80;;
28431;SDS011;15664;51.302;7.744;2022-08-03T13:41:21;5.30;;;1.83;;
28431;SDS011;15664;51.302;7.744;2022-08-03T13:43:46;6.55;;;1.90;;
28431;SDS011;15664;51.302;7.744;2022-08-03T13:46:12;6.47;;;2.50;;
28431;SDS011;15664;51.302;7.744;2022-08-03T13:48:37;3.92;;;1.90;;
28431;SDS011;15664;51.302;7.744;2022-08-03T13:51:02;5.78;;;1.95;;
28431;SDS011;15664;51.302;7.744;2022-08-03T13:53:27;4.70;;;1.85;;
28431;SDS011;15664;51.302;7.744;2022-08-03T13:55:53;5.85;;;1.70;;
28431;SDS011;15664;51.302;7.744;2022-08-03T13:58:18;4.07;;;1.95;;
28431;SDS011;15664;51.302;7.744;2022-08-03T14:00:43;5.97;;;2.10;;
28431;SDS011;15664;51.302;7.744;2022-08-03T14:03:08;5.93;;;2.10;;
28431;SDS011;15664;51.302;7.744;2022-08-03T14:05:34;5.53;;;1.92;;
28431;SDS011;15664;51.302;7.744;2022-08-03T14:08:00;5.60;;;2.00;;
28431;SDS011;15664;51.302;7.744;2022-08-03T14:10:25;5.10;;;1.90;;
28431;SDS011;15664;51.302;7.744;2022-08-03T14:12:50;5.10;;;2.03;;
28431;SDS011;15664;51.302;7.744;2022-08-03T14:15:15;4.40;;;1.90;;
28431;SDS011;15664;51.302;7.744;2022-08-03T14:17:41;5.70;;;1.90;;
28431;SDS011;15664;51.302;7.744;2022-08-03T14:20:07;4.87;;;2.23;;
28431;SDS011;15664;51.302;7.744;2022-08-03T14:22:32;6.75;;;2.10;;
28431;SDS011;15664;51.302;7.744;2022-08-03T14:24:57;7.17;;;1.97;;
28431;SDS011;15664;51.302;7.744;2022-08-03T14:27:23;6.07;;;2.00;;
28431;SDS011;15664;51.302;7.744;2022-08-03T14:29:48;5.17;;;2.20;;
28431;SDS011;15664;51.302;7.744;2022-08-03T14:32:13;6.20;;;1.90;;
28431;SDS011;15664;51.302;7.744;2022-08-03T14:34:38;6.13;;;1.90;;
28431;SDS011;15664;51.302;7.744;2022-08-03T14:37:04;4.73;;;1.90;;
28431;SDS011;15664;51.302;7.744;2022-08-03T14:39:29;4.57;;;1.77;;
28431;SDS011;15664;51.302;7.744;2022-08-03T14:41:54;4.23;;;1.90;;
28431;SDS011;15664;51.302;7.744;2022-08-03T14:44:19;6.63;;;2.00;;
28431;SDS011;15664;51.302;7.744;2022-08-03T14:46:44;4.70;;;1.77;;
28431;SDS011;15664;51.302;7.744;2022-08-03T14:49:10;5.10;;;1.80;;
28431;SDS011;15664;51.302;7.744;2022-08-03T14:51:35;4.43;;;1.90;;
28431;SDS011;15664;51.302;7.744;2022-08-03T14:54:00;5.80;;;1.60;;
28431;SDS011;15664;51.302;7.744;2022-08-03T14:56:25;7.07;;;1.80;;
28431;SDS011;15664;51.302;7.744;2022-08-03T14:58:50;8.03;;;1.90;;
28431;SDS011;15664;51.302;7.744;2022-08-03T15:01:16;5.10;;;1.80;;
28431;SDS011;15664;51.302;7.744;2022-08-03T15:03:41;4.73;;;1.90;;
28431;SDS011;15664;51.302;7.744;2022-08-03T15:06:06;5.33;;;1.83;;
28431;SDS011;15664;51.302;7.744;2022-08-03T15:08:31;5.93;;;1.97;;
28431;SDS011;15664;51.302;7.744;2022-08-03T15:10:56;6.67;;;1.80;;
28431;SDS011;15664;51.302;7.744;2022-08-03T15:13:22;4.03;;;1.60;;
28431;SDS011;15664;51.302;7.744;2022-08-03T15:15:49;6.07;;;1.83;;
28431;SDS011;15664;51.302;7.744;2022-08-03T15:18:15;5.97;;;1.70;;
28431;SDS011;15664;51.302;7.744;2022-08-03T15:20:41;4.73;;;1.50;;
28431;SDS011;15664;51.302;7.744;2022-08-03T15:23:06;4.43;;;1.47;;
28431;SDS011;15664;51.302;7.744;2022-08-03T15:25:31;4.10;;;1.67;;
28431;SDS011;15664;51.302;7.744;2022-08-03T15:27:56;3.70;;;1.53;;